Terminal Aerodrome Forecast
Issued by NWS

Home | Current Version | Previous Version | Graphics & Text | Print | Product List | Glossary Off
Versions: 1 2 3 4 5 6 7 8 9 10 11 12 13

000
FTUS43 KOAX 221142
TAFCDR
TAF
KCDR 221142Z 2212/2312 24009KT P6SM SCT250
     FM221700 25015G25KT P6SM BKN250
     FM230000 26012KT P6SM VCSH SCT040 BKN070=

USA.gov is the U.S. government's official web portal to all federal, state and local government web resources and services.